sensor_id;sensor_type;location;lat;lon;timestamp;temperature;humidity
16976;DHT22;8604;48.148;-1.786;2023-04-23T00:01:41;12.00;99.90
16976;DHT22;8604;48.148;-1.786;2023-04-23T00:04:11;12.00;99.90
16976;DHT22;8604;48.148;-1.786;2023-04-23T00:06:41;12.00;99.90
16976;DHT22;8604;48.148;-1.786;2023-04-23T00:09:12;12.00;99.90
16976;DHT22;8604;48.148;-1.786;2023-04-23T00:11:42;12.00;99.90
16976;DHT22;8604;48.148;-1.786;2023-04-23T00:14:11;12.00;99.90
16976;DHT22;8604;48.148;-1.786;2023-04-23T00:16:40;12.00;99.90
16976;DHT22;8604;48.148;-1.786;2023-04-23T00:19:08;12.10;99.90
16976;DHT22;8604;48.148;-1.786;2023-04-23T00:21:38;12.10;99.90
16976;DHT22;8604;48.148;-1.786;2023-04-23T00:24:06;12.10;99.90
16976;DHT22;8604;48.148;-1.786;2023-04-23T00:26:35;12.10;99.90
16976;DHT22;8604;48.148;-1.786;2023-04-23T00:29:03;12.00;99.90
16976;DHT22;8604;48.148;-1.786;2023-04-23T00:31:31;12.00;99.90
16976;DHT22;8604;48.148;-1.786;2023-04-23T00:34:00;12.00;99.90
16976;DHT22;8604;48.148;-1.786;2023-04-23T00:36:28;11.90;99.90
16976;DHT22;8604;48.148;-1.786;2023-04-23T00:38:58;11.90;99.90
16976;DHT22;8604;48.148;-1.786;2023-04-23T00:41:26;11.80;99.90
16976;DHT22;8604;48.148;-1.786;2023-04-23T00:43:55;11.80;99.90
16976;DHT22;8604;48.148;-1.786;2023-04-23T00:46:24;11.80;99.90
16976;DHT22;8604;48.148;-1.786;2023-04-23T00:48:53;11.80;99.90
16976;DHT22;8604;48.148;-1.786;2023-04-23T00:51:22;11.80;99.90
16976;DHT22;8604;48.148;-1.786;2023-04-23T00:53:50;11.80;99.90
16976;DHT22;8604;48.148;-1.786;2023-04-23T00:56:20;11.80;99.90
16976;DHT22;8604;48.148;-1.786;2023-04-23T00:58:50;11.80;99.90
16976;DHT22;8604;48.148;-1.786;2023-04-23T01:01:19;11.80;99.90
16976;DHT22;8604;48.148;-1.786;2023-04-23T01:03:50;11.80;99.90
16976;DHT22;8604;48.148;-1.786;2023-04-23T01:06:20;11.80;99.90
16976;DHT22;8604;48.148;-1.786;2023-04-23T01:08:51;11.80;99.90
16976;DHT22;8604;48.148;-1.786;2023-04-23T01:11:20;11.80;99.90
16976;DHT22;8604;48.148;-1.786;2023-04-23T01:13:49;11.80;99.90
16976;DHT22;8604;48.148;-1.786;2023-04-23T01:16:18;11.80;99.90
16976;DHT22;8604;48.148;-1.786;2023-04-23T01:18:46;11.80;99.90
16976;DHT22;8604;48.148;-1.786;2023-04-23T01:21:16;11.80;99.90
16976;DHT22;8604;48.148;-1.786;2023-04-23T01:23:46;11.80;99.90
16976;DHT22;8604;48.148;-1.786;2023-04-23T01:26:15;11.80;99.90
16976;DHT22;8604;48.148;-1.786;2023-04-23T01:28:45;11.70;99.90
16976;DHT22;8604;48.148;-1.786;2023-04-23T01:31:13;11.80;99.90
16976;DHT22;8604;48.148;-1.786;2023-04-23T01:33:43;11.70;99.90
16976;DHT22;8604;48.148;-1.786;2023-04-23T01:36:13;11.70;99.90
16976;DHT22;8604;48.148;-1.786;2023-04-23T01:38:41;11.70;99.90
16976;DHT22;8604;48.148;-1.786;2023-04-23T01:41:11;11.80;99.90
16976;DHT22;8604;48.148;-1.786;2023-04-23T01:43:41;11.70;99.90
16976;DHT22;8604;48.148;-1.786;2023-04-23T01:46:09;11.80;99.90
16976;DHT22;8604;48.148;-1.786;2023-04-23T01:48:38;11.80;99.90
16976;DHT22;8604;48.148;-1.786;2023-04-23T01:51:06;11.80;99.90
16976;DHT22;8604;48.148;-1.786;2023-04-23T01:53:35;11.80;99.90
16976;DHT22;8604;48.148;-1.786;2023-04-23T01:56:04;11.80;99.90
16976;DHT22;8604;48.148;-1.786;2023-04-23T01:58:34;11.80;99.90
16976;DHT22;8604;48.148;-1.786;2023-04-23T02:01:03;11.80;99.90
16976;DHT22;8604;48.148;-1.786;2023-04-23T02:03:31;11.90;99.90
16976;DHT22;8604;48.148;-1.786;2023-04-23T02:06:01;11.90;99.90
16976;DHT22;8604;48.148;-1.786;2023-04-23T02:08:31;11.90;99.90
16976;DHT22;8604;48.148;-1.786;2023-04-23T02:10:59;11.90;99.90
16976;DHT22;8604;48.148;-1.786;2023-04-23T02:13:27;11.90;99.90
16976;DHT22;8604;48.148;-1.786;2023-04-23T02:15:57;12.00;99.90
16976;DHT22;8604;48.148;-1.786;2023-04-23T02:18:25;12.00;99.90
16976;DHT22;8604;48.148;-1.786;2023-04-23T02:20:54;12.00;99.90
16976;DHT22;8604;48.148;-1.786;2023-04-23T02:23:23;12.00;99.90
16976;DHT22;8604;48.148;-1.786;2023-04-23T02:25:52;12.10;99.90
16976;DHT22;8604;48.148;-1.786;2023-04-23T02:28:20;12.10;99.90
16976;DHT22;8604;48.148;-1.786;2023-04-23T02:30:49;12.10;99.90
16976;DHT22;8604;48.148;-1.786;2023-04-23T02:33:19;12.10;99.90
16976;DHT22;8604;48.148;-1.786;2023-04-23T02:35:49;12.10;99.90
16976;DHT22;8604;48.148;-1.786;2023-04-23T02:38:18;12.10;99.90
16976;DHT22;8604;48.148;-1.786;2023-04-23T02:40:46;12.20;99.90
16976;DHT22;8604;48.148;-1.786;2023-04-23T02:43:14;12.20;99.90
16976;DHT22;8604;48.148;-1.786;2023-04-23T02:45:44;12.20;99.90
16976;DHT22;8604;48.148;-1.786;2023-04-23T02:48:12;12.20;99.90
16976;DHT22;8604;48.148;-1.786;2023-04-23T02:50:42;12.20;99.90
16976;DHT22;8604;48.148;-1.786;2023-04-23T02:53:10;12.20;99.90
16976;DHT22;8604;48.148;-1.786;2023-04-23T02:55:39;12.20;99.90
16976;DHT22;8604;48.148;-1.786;2023-04-23T02:58:07;12.20;99.90
16976;DHT22;8604;48.148;-1.786;2023-04-23T03:00:37;12.10;99.90
16976;DHT22;8604;48.148;-1.786;2023-04-23T03:03:05;12.10;99.90
16976;DHT22;8604;48.148;-1.786;2023-04-23T03:05:37;12.10;99.90
16976;DHT22;8604;48.148;-1.786;2023-04-23T03:08:06;12.10;99.90
16976;DHT22;8604;48.148;-1.786;2023-04-23T03:10:35;12.00;99.90
16976;DHT22;8604;48.148;-1.786;2023-04-23T03:13:04;12.00;99.90
16976;DHT22;8604;48.148;-1.786;2023-04-23T03:15:32;12.00;99.90
16976;DHT22;8604;48.148;-1.786;2023-04-23T03:18:00;11.90;99.90
16976;DHT22;8604;48.148;-1.786;2023-04-23T03:20:30;11.90;99.90
16976;DHT22;8604;48.148;-1.786;2023-04-23T03:22:59;11.90;99.90
16976;DHT22;8604;48.148;-1.786;2023-04-23T03:25:28;11.90;99.90
16976;DHT22;8604;48.148;-1.786;2023-04-23T03:27:57;11.90;99.90
16976;DHT22;8604;48.148;-1.786;2023-04-23T03:30:26;11.90;99.90
16976;DHT22;8604;48.148;-1.786;2023-04-23T03:32:55;11.90;99.90
16976;DHT22;8604;48.148;-1.786;2023-04-23T03:35:24;11.90;99.90
16976;DHT22;8604;48.148;-1.786;2023-04-23T03:37:55;11.80;99.90
16976;DHT22;8604;48.148;-1.786;2023-04-23T03:40:24;11.80;99.90
16976;DHT22;8604;48.148;-1.786;2023-04-23T03:42:58;11.80;99.90
16976;DHT22;8604;48.148;-1.786;2023-04-23T03:45:44;11.80;99.90
16976;DHT22;8604;48.148;-1.786;2023-04-23T03:48:12;11.80;99.90
16976;DHT22;8604;48.148;-1.786;2023-04-23T03:50:40;11.80;99.90
16976;DHT22;8604;48.148;-1.786;2023-04-23T03:53:22;11.70;99.90
16976;DHT22;8604;48.148;-1.786;2023-04-23T03:56:09;11.80;99.90
16976;DHT22;8604;48.148;-1.786;2023-04-23T03:58:49;11.80;99.90
16976;DHT22;8604;48.148;-1.786;2023-04-23T04:01:18;11.80;99.90
16976;DHT22;8604;48.148;-1.786;2023-04-23T04:03:46;11.80;99.90
16976;DHT22;8604;48.148;-1.786;2023-04-23T04:06:15;11.80;99.90
16976;DHT22;8604;48.148;-1.786;2023-04-23T04:08:44;11.80;99.90
16976;DHT22;8604;48.148;-1.786;2023-04-23T04:11:12;11.80;99.90
16976;DHT22;8604;48.148;-1.786;2023-04-23T04:13:40;11.70;99.90
16976;DHT22;8604;48.148;-1.786;2023-04-23T04:16:10;11.70;99.90
16976;DHT22;8604;48.148;-1.786;2023-04-23T04:18:38;11.80;99.90
16976;DHT22;8604;48.148;-1.786;2023-04-23T04:21:07;11.70;99.90
16976;DHT22;8604;48.148;-1.786;2023-04-23T04:23:35;11.70;99.90
16976;DHT22;8604;48.148;-1.786;2023-04-23T04:26:04;11.70;99.90
16976;DHT22;8604;48.148;-1.786;2023-04-23T04:28:33;11.70;99.90
16976;DHT22;8604;48.148;-1.786;2023-04-23T04:31:03;11.60;99.90
16976;DHT22;8604;48.148;-1.786;2023-04-23T04:33:34;11.60;99.90
16976;DHT22;8604;48.148;-1.786;2023-04-23T04:36:05;11.60;99.90
16976;DHT22;8604;48.148;-1.786;2023-04-23T04:38:35;11.60;99.90
16976;DHT22;8604;48.148;-1.786;2023-04-23T04:41:05;11.60;99.90
16976;DHT22;8604;48.148;-1.786;2023-04-23T04:43:33;11.60;99.90
16976;DHT22;8604;48.148;-1.786;2023-04-23T04:46:01;11.60;99.90
16976;DHT22;8604;48.148;-1.786;2023-04-23T04:48:34;11.60;99.90
16976;DHT22;8604;48.148;-1.786;2023-04-23T04:51:03;11.60;99.90
16976;DHT22;8604;48.148;-1.786;2023-04-23T04:53:31;11.60;99.90
16976;DHT22;8604;48.148;-1.786;2023-04-23T04:56:01;11.60;99.90
16976;DHT22;8604;48.148;-1.786;2023-04-23T04:58:30;11.60;99.90
16976;DHT22;8604;48.148;-1.786;2023-04-23T05:00:58;11.60;99.90
16976;DHT22;8604;48.148;-1.786;2023-04-23T05:03:27;11.50;99.90
16976;DHT22;8604;48.148;-1.786;2023-04-23T05:05:58;11.50;99.90
16976;DHT22;8604;48.148;-1.786;2023-04-23T05:08:26;11.50;99.90
16976;DHT22;8604;48.148;-1.786;2023-04-23T05:10:54;11.50;99.90
16976;DHT22;8604;48.148;-1.786;2023-04-23T05:13:23;11.60;99.90
16976;DHT22;8604;48.148;-1.786;2023-04-23T05:15:51;11.50;99.90
16976;DHT22;8604;48.148;-1.786;2023-04-23T05:18:19;11.50;99.90
16976;DHT22;8604;48.148;-1.786;2023-04-23T05:20:48;11.50;99.90
16976;DHT22;8604;48.148;-1.786;2023-04-23T05:23:18;11.50;99.90
16976;DHT22;8604;48.148;-1.786;2023-04-23T05:25:46;11.50;99.90
16976;DHT22;8604;48.148;-1.786;2023-04-23T05:28:17;11.50;99.90
16976;DHT22;8604;48.148;-1.786;2023-04-23T05:30:45;11.50;99.90
16976;DHT22;8604;48.148;-1.786;2023-04-23T05:33:13;11.50;99.90
16976;DHT22;8604;48.148;-1.786;2023-04-23T05:35:42;11.50;99.90
16976;DHT22;8604;48.148;-1.786;2023-04-23T05:38:10;11.50;99.90
16976;DHT22;8604;48.148;-1.786;2023-04-23T05:40:40;11.50;99.90
16976;DHT22;8604;48.148;-1.786;2023-04-23T05:43:08;11.50;99.90
16976;DHT22;8604;48.148;-1.786;2023-04-23T05:45:37;11.50;99.90
16976;DHT22;8604;48.148;-1.786;2023-04-23T05:48:12;11.50;99.90
16976;DHT22;8604;48.148;-1.786;2023-04-23T05:51:12;11.40;99.90
16976;DHT22;8604;48.148;-1.786;2023-04-23T05:54:10;11.40;99.90
16976;DHT22;8604;48.148;-1.786;2023-04-23T05:57:12;11.40;99.90
16976;DHT22;8604;48.148;-1.786;2023-04-23T06:07:49;11.40;99.90
16976;DHT22;8604;48.148;-1.786;2023-04-23T07:10:07;11.00;99.90
16976;DHT22;8604;48.148;-1.786;2023-04-23T07:12:50;10.70;99.90
16976;DHT22;8604;48.148;-1.786;2023-04-23T07:22:39;10.00;99.90
16976;DHT22;8604;48.148;-1.786;2023-04-23T07:25:15;10.00;99.90
16976;DHT22;8604;48.148;-1.786;2023-04-23T07:27:44;9.90;99.90
16976;DHT22;8604;48.148;-1.786;2023-04-23T07:30:16;9.90;99.90
16976;DHT22;8604;48.148;-1.786;2023-04-23T07:32:45;9.80;99.90
16976;DHT22;8604;48.148;-1.786;2023-04-23T07:39:01;9.80;99.90
16976;DHT22;8604;48.148;-1.786;2023-04-23T07:41:33;9.90;99.90
16976;DHT22;8604;48.148;-1.786;2023-04-23T07:44:06;10.00;99.90
16976;DHT22;8604;48.148;-1.786;2023-04-23T07:46:54;10.10;99.90
16976;DHT22;8604;48.148;-1.786;2023-04-23T07:49:24;10.20;99.90
16976;DHT22;8604;48.148;-1.786;2023-04-23T07:51:53;10.30;99.90
16976;DHT22;8604;48.148;-1.786;2023-04-23T07:54:22;10.40;99.90
16976;DHT22;8604;48.148;-1.786;2023-04-23T07:56:53;10.50;99.90
16976;DHT22;8604;48.148;-1.786;2023-04-23T07:59:23;10.50;99.90
16976;DHT22;8604;48.148;-1.786;2023-04-23T08:01:55;10.60;99.90
16976;DHT22;8604;48.148;-1.786;2023-04-23T08:04:31;10.90;99.90
16976;DHT22;8604;48.148;-1.786;2023-04-23T08:07:01;11.00;99.90
16976;DHT22;8604;48.148;-1.786;2023-04-23T08:09:38;11.50;99.90
16976;DHT22;8604;48.148;-1.786;2023-04-23T08:12:11;12.00;99.90
16976;DHT22;8604;48.148;-1.786;2023-04-23T08:14:44;12.60;99.90
16976;DHT22;8604;48.148;-1.786;2023-04-23T08:17:17;13.10;99.90
16976;DHT22;8604;48.148;-1.786;2023-04-23T08:19:49;13.40;99.90
16976;DHT22;8604;48.148;-1.786;2023-04-23T08:22:19;13.50;99.90
16976;DHT22;8604;48.148;-1.786;2023-04-23T08:24:50;13.80;99.90
16976;DHT22;8604;48.148;-1.786;2023-04-23T08:27:25;13.90;99.90
16976;DHT22;8604;48.148;-1.786;2023-04-23T08:29:54;14.40;99.90
16976;DHT22;8604;48.148;-1.786;2023-04-23T08:32:29;14.50;99.90
16976;DHT22;8604;48.148;-1.786;2023-04-23T08:35:01;14.60;99.90
16976;DHT22;8604;48.148;-1.786;2023-04-23T08:37:33;14.40;99.90
16976;DHT22;8604;48.148;-1.786;2023-04-23T08:40:06;14.40;99.90
16976;DHT22;8604;48.148;-1.786;2023-04-23T08:42:41;14.20;99.90
16976;DHT22;8604;48.148;-1.786;2023-04-23T08:45:11;13.80;99.90
16976;DHT22;8604;48.148;-1.786;2023-04-23T08:47:41;13.70;99.90
16976;DHT22;8604;48.148;-1.786;2023-04-23T08:50:13;13.80;99.90
16976;DHT22;8604;48.148;-1.786;2023-04-23T08:52:48;14.10;99.90
16976;DHT22;8604;48.148;-1.786;2023-04-23T08:55:18;14.80;99.90
16976;DHT22;8604;48.148;-1.786;2023-04-23T08:57:49;15.50;99.90
16976;DHT22;8604;48.148;-1.786;2023-04-23T09:00:20;15.70;99.90
16976;DHT22;8604;48.148;-1.786;2023-04-23T09:02:50;15.50;99.90
16976;DHT22;8604;48.148;-1.786;2023-04-23T09:05:20;15.50;99.90
16976;DHT22;8604;48.148;-1.786;2023-04-23T09:07:49;15.80;99.90
16976;DHT22;8604;48.148;-1.786;2023-04-23T09:10:19;16.00;99.90
16976;DHT22;8604;48.148;-1.786;2023-04-23T09:12:49;16.40;99.90
16976;DHT22;8604;48.148;-1.786;2023-04-23T09:15:18;16.60;99.90
16976;DHT22;8604;48.148;-1.786;2023-04-23T09:17:47;16.60;99.90
16976;DHT22;8604;48.148;-1.786;2023-04-23T09:20:17;16.40;99.90
16976;DHT22;8604;48.148;-1.786;2023-04-23T09:22:47;16.40;99.90
16976;DHT22;8604;48.148;-1.786;2023-04-23T09:25:18;16.50;99.90
16976;DHT22;8604;48.148;-1.786;2023-04-23T09:27:49;16.80;99.90
16976;DHT22;8604;48.148;-1.786;2023-04-23T09:30:19;17.00;99.90
16976;DHT22;8604;48.148;-1.786;2023-04-23T09:32:53;17.10;99.90
16976;DHT22;8604;48.148;-1.786;2023-04-23T09:35:26;16.80;99.90
16976;DHT22;8604;48.148;-1.786;2023-04-23T09:37:55;16.60;99.90
16976;DHT22;8604;48.148;-1.786;2023-04-23T09:40:26;16.20;99.90
16976;DHT22;8604;48.148;-1.786;2023-04-23T09:42:57;15.70;99.90
16976;DHT22;8604;48.148;-1.786;2023-04-23T09:45:27;15.50;99.90
16976;DHT22;8604;48.148;-1.786;2023-04-23T09:47:57;15.30;99.90
16976;DHT22;8604;48.148;-1.786;2023-04-23T09:50:31;15.40;99.90
16976;DHT22;8604;48.148;-1.786;2023-04-23T09:53:00;15.90;99.90
16976;DHT22;8604;48.148;-1.786;2023-04-23T09:55:30;16.20;99.90
16976;DHT22;8604;48.148;-1.786;2023-04-23T09:58:04;16.40;99.90
16976;DHT22;8604;48.148;-1.786;2023-04-23T10:00:36;16.40;99.90
16976;DHT22;8604;48.148;-1.786;2023-04-23T10:03:06;16.40;99.90
16976;DHT22;8604;48.148;-1.786;2023-04-23T10:05:40;16.40;99.90
16976;DHT22;8604;48.148;-1.786;2023-04-23T10:08:15;16.50;99.90
16976;DHT22;8604;48.148;-1.786;2023-04-23T10:10:51;16.50;99.90
16976;DHT22;8604;48.148;-1.786;2023-04-23T10:13:40;16.70;99.90
16976;DHT22;8604;48.148;-1.786;2023-04-23T10:16:23;17.20;99.90
16976;DHT22;8604;48.148;-1.786;2023-04-23T10:19:13;17.60;99.90
16976;DHT22;8604;48.148;-1.786;2023-04-23T10:21:44;17.90;99.90
16976;DHT22;8604;48.148;-1.786;2023-04-23T10:24:23;18.00;99.90
16976;DHT22;8604;48.148;-1.786;2023-04-23T10:26:56;18.40;99.90
16976;DHT22;8604;48.148;-1.786;2023-04-23T10:29:31;18.50;99.90
16976;DHT22;8604;48.148;-1.786;2023-04-23T10:32:02;18.10;99.90
16976;DHT22;8604;48.148;-1.786;2023-04-23T10:34:32;17.70;99.90
16976;DHT22;8604;48.148;-1.786;2023-04-23T10:37:29;17.40;99.90
16976;DHT22;8604;48.148;-1.786;2023-04-23T10:40:02;17.30;99.90
16976;DHT22;8604;48.148;-1.786;2023-04-23T10:42:33;17.20;99.90
16976;DHT22;8604;48.148;-1.786;2023-04-23T10:45:11;17.00;99.90
16976;DHT22;8604;48.148;-1.786;2023-04-23T15:57:19;13.90;99.90
16976;DHT22;8604;48.148;-1.786;2023-04-23T16:00:35;14.00;99.90
16976;DHT22;8604;48.148;-1.786;2023-04-23T16:03:04;14.10;99.90
16976;DHT22;8604;48.148;-1.786;2023-04-23T16:05:34;14.20;99.90
16976;DHT22;8604;48.148;-1.786;2023-04-23T16:08:03;14.40;99.90
16976;DHT22;8604;48.148;-1.786;2023-04-23T16:10:33;14.40;99.90
16976;DHT22;8604;48.148;-1.786;2023-04-23T16:13:03;14.40;99.90
16976;DHT22;8604;48.148;-1.786;2023-04-23T16:15:32;14.50;99.90
16976;DHT22;8604;48.148;-1.786;2023-04-23T16:18:00;14.60;99.90
16976;DHT22;8604;48.148;-1.786;2023-04-23T16:20:29;14.60;99.90
16976;DHT22;8604;48.148;-1.786;2023-04-23T16:22:59;14.60;99.90
16976;DHT22;8604;48.148;-1.786;2023-04-23T16:25:27;14.60;99.90
16976;DHT22;8604;48.148;-1.786;2023-04-23T16:27:56;14.60;99.90
16976;DHT22;8604;48.148;-1.786;2023-04-23T16:30:26;14.60;99.90
16976;DHT22;8604;48.148;-1.786;2023-04-23T16:32:55;14.50;99.90
16976;DHT22;8604;48.148;-1.786;2023-04-23T16:35:23;14.50;99.90
16976;DHT22;8604;48.148;-1.786;2023-04-23T16:37:52;14.50;99.90
16976;DHT22;8604;48.148;-1.786;2023-04-23T16:40:21;14.40;99.90
16976;DHT22;8604;48.148;-1.786;2023-04-23T16:42:50;14.40;99.90
16976;DHT22;8604;48.148;-1.786;2023-04-23T16:45:20;14.40;99.90
16976;DHT22;8604;48.148;-1.786;2023-04-23T16:47:57;14.30;99.90
16976;DHT22;8604;48.148;-1.786;2023-04-23T16:50:26;14.30;99.90
16976;DHT22;8604;48.148;-1.786;2023-04-23T16:52:55;14.30;99.90
16976;DHT22;8604;48.148;-1.786;2023-04-23T16:55:24;14.20;99.90
16976;DHT22;8604;48.148;-1.786;2023-04-23T16:57:52;14.20;99.90
16976;DHT22;8604;48.148;-1.786;2023-04-23T17:00:21;14.20;99.90
16976;DHT22;8604;48.148;-1.786;2023-04-23T17:02:50;14.20;99.90
16976;DHT22;8604;48.148;-1.786;2023-04-23T17:05:22;14.10;99.90
16976;DHT22;8604;48.148;-1.786;2023-04-23T17:07:51;14.00;99.90
16976;DHT22;8604;48.148;-1.786;2023-04-23T17:10:20;14.00;99.90
16976;DHT22;8604;48.148;-1.786;2023-04-23T17:12:48;14.00;99.90
16976;DHT22;8604;48.148;-1.786;2023-04-23T17:15:20;14.10;99.90
16976;DHT22;8604;48.148;-1.786;2023-04-23T17:17:49;14.00;99.90
16976;DHT22;8604;48.148;-1.786;2023-04-23T17:20:19;14.00;99.90
16976;DHT22;8604;48.148;-1.786;2023-04-23T17:22:49;13.90;99.90
16976;DHT22;8604;48.148;-1.786;2023-04-23T17:25:18;13.90;99.90
16976;DHT22;8604;48.148;-1.786;2023-04-23T17:27:46;13.90;99.90
16976;DHT22;8604;48.148;-1.786;2023-04-23T17:30:15;13.90;99.90
16976;DHT22;8604;48.148;-1.786;2023-04-23T17:32:43;13.90;99.90
16976;DHT22;8604;48.148;-1.786;2023-04-23T17:35:12;13.90;99.90
16976;DHT22;8604;48.148;-1.786;2023-04-23T17:37:40;13.80;99.90
16976;DHT22;8604;48.148;-1.786;2023-04-23T17:40:11;13.80;99.90
16976;DHT22;8604;48.148;-1.786;2023-04-23T17:42:39;13.80;99.90
16976;DHT22;8604;48.148;-1.786;2023-04-23T17:45:09;13.70;99.90
16976;DHT22;8604;48.148;-1.786;2023-04-23T17:47:38;13.60;99.90
16976;DHT22;8604;48.148;-1.786;2023-04-23T17:50:07;13.60;99.90
16976;DHT22;8604;48.148;-1.786;2023-04-23T17:52:37;13.50;99.90
16976;DHT22;8604;48.148;-1.786;2023-04-23T17:55:07;13.50;99.90
16976;DHT22;8604;48.148;-1.786;2023-04-23T17:57:37;13.40;99.90
16976;DHT22;8604;48.148;-1.786;2023-04-23T18:00:07;13.40;99.90
16976;DHT22;8604;48.148;-1.786;2023-04-23T18:02:38;13.30;99.90
16976;DHT22;8604;48.148;-1.786;2023-04-23T18:05:09;13.20;99.90
16976;DHT22;8604;48.148;-1.786;2023-04-23T18:07:39;13.20;99.90
16976;DHT22;8604;48.148;-1.786;2023-04-23T18:10:09;13.20;99.90
16976;DHT22;8604;48.148;-1.786;2023-04-23T18:12:39;13.10;99.90
16976;DHT22;8604;48.148;-1.786;2023-04-23T18:15:08;13.00;99.90
16976;DHT22;8604;48.148;-1.786;2023-04-23T18:17:38;12.90;99.90
16976;DHT22;8604;48.148;-1.786;2023-04-23T18:20:08;12.80;99.90
16976;DHT22;8604;48.148;-1.786;2023-04-23T18:22:36;12.80;99.90
16976;DHT22;8604;48.148;-1.786;2023-04-23T18:25:06;12.70;99.90
16976;DHT22;8604;48.148;-1.786;2023-04-23T18:27:36;12.70;99.90
16976;DHT22;8604;48.148;-1.786;2023-04-23T18:30:07;12.80;99.90
16976;DHT22;8604;48.148;-1.786;2023-04-23T18:32:41;12.70;99.90
16976;DHT22;8604;48.148;-1.786;2023-04-23T18:35:10;12.70;99.90
16976;DHT22;8604;48.148;-1.786;2023-04-23T18:37:42;12.70;99.90
16976;DHT22;8604;48.148;-1.786;2023-04-23T18:40:11;12.60;99.90
16976;DHT22;8604;48.148;-1.786;2023-04-23T18:42:39;12.60;99.90
16976;DHT22;8604;48.148;-1.786;2023-04-23T18:45:10;12.50;99.90
16976;DHT22;8604;48.148;-1.786;2023-04-23T18:47:42;12.40;99.90
16976;DHT22;8604;48.148;-1.786;2023-04-23T18:50:29;12.40;99.90
16976;DHT22;8604;48.148;-1.786;2023-04-23T18:52:58;12.30;99.90
16976;DHT22;8604;48.148;-1.786;2023-04-23T18:55:26;12.20;99.90
16976;DHT22;8604;48.148;-1.786;2023-04-23T18:57:55;12.20;99.90
16976;DHT22;8604;48.148;-1.786;2023-04-23T19:00:25;12.10;99.90
16976;DHT22;8604;48.148;-1.786;2023-04-23T19:02:53;12.10;99.90
16976;DHT22;8604;48.148;-1.786;2023-04-23T19:05:22;12.00;99.90
16976;DHT22;8604;48.148;-1.786;2023-04-23T19:07:51;12.00;99.90
16976;DHT22;8604;48.148;-1.786;2023-04-23T19:10:20;12.00;99.90
16976;DHT22;8604;48.148;-1.786;2023-04-23T19:12:49;11.90;99.90
16976;DHT22;8604;48.148;-1.786;2023-04-23T19:15:18;11.90;99.90
16976;DHT22;8604;48.148;-1.786;2023-04-23T19:17:48;11.90;99.90
16976;DHT22;8604;48.148;-1.786;2023-04-23T19:20:17;11.90;99.90
16976;DHT22;8604;48.148;-1.786;2023-04-23T19:22:45;11.90;99.90
16976;DHT22;8604;48.148;-1.786;2023-04-23T19:25:14;11.80;99.90
16976;DHT22;8604;48.148;-1.786;2023-04-23T19:27:42;11.90;99.90
16976;DHT22;8604;48.148;-1.786;2023-04-23T19:30:11;11.90;99.90
16976;DHT22;8604;48.148;-1.786;2023-04-23T19:32:40;11.90;99.90
16976;DHT22;8604;48.148;-1.786;2023-04-23T19:35:10;11.90;99.90
16976;DHT22;8604;48.148;-1.786;2023-04-23T19:37:38;11.90;99.90
16976;DHT22;8604;48.148;-1.786;2023-04-23T19:40:08;11.90;99.90
16976;DHT22;8604;48.148;-1.786;2023-04-23T19:42:36;11.80;99.90
16976;DHT22;8604;48.148;-1.786;2023-04-23T19:45:06;11.80;99.90
16976;DHT22;8604;48.148;-1.786;2023-04-23T19:47:34;11.80;99.90
16976;DHT22;8604;48.148;-1.786;2023-04-23T19:50:07;11.70;99.90
16976;DHT22;8604;48.148;-1.786;2023-04-23T19:52:37;11.70;99.90
16976;DHT22;8604;48.148;-1.786;2023-04-23T19:55:07;11.70;99.90
16976;DHT22;8604;48.148;-1.786;2023-04-23T19:57:35;11.70;99.90
16976;DHT22;8604;48.148;-1.786;2023-04-23T20:00:05;11.70;99.90
16976;DHT22;8604;48.148;-1.786;2023-04-23T20:02:37;11.60;99.90
16976;DHT22;8604;48.148;-1.786;2023-04-23T20:05:07;11.60;99.90
16976;DHT22;8604;48.148;-1.786;2023-04-23T20:07:38;11.70;99.90
16976;DHT22;8604;48.148;-1.786;2023-04-23T20:10:07;11.60;99.90
16976;DHT22;8604;48.148;-1.786;2023-04-23T20:12:36;11.60;99.90
16976;DHT22;8604;48.148;-1.786;2023-04-23T20:15:06;11.70;99.90
16976;DHT22;8604;48.148;-1.786;2023-04-23T20:17:36;11.60;99.90
16976;DHT22;8604;48.148;-1.786;2023-04-23T20:20:05;11.60;99.90
16976;DHT22;8604;48.148;-1.786;2023-04-23T20:22:34;11.50;99.90
16976;DHT22;8604;48.148;-1.786;2023-04-23T20:25:06;11.50;99.90
16976;DHT22;8604;48.148;-1.786;2023-04-23T20:27:34;11.50;99.90
16976;DHT22;8604;48.148;-1.786;2023-04-23T20:30:04;11.50;99.90
16976;DHT22;8604;48.148;-1.786;2023-04-23T20:32:33;11.40;99.90
16976;DHT22;8604;48.148;-1.786;2023-04-23T20:35:01;11.40;99.90
16976;DHT22;8604;48.148;-1.786;2023-04-23T20:37:30;11.30;99.90
16976;DHT22;8604;48.148;-1.786;2023-04-23T20:39:59;11.30;99.90
16976;DHT22;8604;48.148;-1.786;2023-04-23T20:42:29;11.30;99.90
16976;DHT22;8604;48.148;-1.786;2023-04-23T20:44:58;11.30;99.90
16976;DHT22;8604;48.148;-1.786;2023-04-23T20:47:26;11.30;99.90
16976;DHT22;8604;48.148;-1.786;2023-04-23T20:49:55;11.30;99.90
16976;DHT22;8604;48.148;-1.786;2023-04-23T20:52:23;11.20;99.90
16976;DHT22;8604;48.148;-1.786;2023-04-23T20:54:52;11.30;99.90
16976;DHT22;8604;48.148;-1.786;2023-04-23T20:57:20;11.20;99.90
16976;DHT22;8604;48.148;-1.786;2023-04-23T20:59:50;11.20;99.90
16976;DHT22;8604;48.148;-1.786;2023-04-23T21:02:19;11.20;99.90
16976;DHT22;8604;48.148;-1.786;2023-04-23T21:04:48;11.10;99.90
16976;DHT22;8604;48.148;-1.786;2023-04-23T21:07:17;11.10;99.90
16976;DHT22;8604;48.148;-1.786;2023-04-23T21:09:46;11.00;99.90
16976;DHT22;8604;48.148;-1.786;2023-04-23T21:12:15;11.00;99.90
16976;DHT22;8604;48.148;-1.786;2023-04-23T21:14:43;11.00;99.90
16976;DHT22;8604;48.148;-1.786;2023-04-23T21:17:14;10.90;99.90
16976;DHT22;8604;48.148;-1.786;2023-04-23T21:19:43;10.90;99.90
16976;DHT22;8604;48.148;-1.786;2023-04-23T21:22:11;11.00;99.90
16976;DHT22;8604;48.148;-1.786;2023-04-23T21:24:40;11.00;99.90
16976;DHT22;8604;48.148;-1.786;2023-04-23T21:27:08;11.00;99.90
16976;DHT22;8604;48.148;-1.786;2023-04-23T21:29:38;11.00;99.90
16976;DHT22;8604;48.148;-1.786;2023-04-23T21:32:07;11.00;99.90
16976;DHT22;8604;48.148;-1.786;2023-04-23T21:34:36;11.00;99.90
16976;DHT22;8604;48.148;-1.786;2023-04-23T21:37:05;11.00;99.90
16976;DHT22;8604;48.148;-1.786;2023-04-23T21:39:34;11.00;99.90
16976;DHT22;8604;48.148;-1.786;2023-04-23T21:42:03;11.00;99.90
16976;DHT22;8604;48.148;-1.786;2023-04-23T21:44:34;11.00;99.90
16976;DHT22;8604;48.148;-1.786;2023-04-23T21:47:02;11.00;99.90
16976;DHT22;8604;48.148;-1.786;2023-04-23T21:49:32;11.00;99.90
16976;DHT22;8604;48.148;-1.786;2023-04-23T21:52:03;11.00;99.90
16976;DHT22;8604;48.148;-1.786;2023-04-23T21:54:32;11.00;99.90
16976;DHT22;8604;48.148;-1.786;2023-04-23T21:57:00;11.00;99.90
16976;DHT22;8604;48.148;-1.786;2023-04-23T21:59:29;11.00;99.90
16976;DHT22;8604;48.148;-1.786;2023-04-23T22:01:58;10.90;99.90
16976;DHT22;8604;48.148;-1.786;2023-04-23T22:04:26;10.90;99.90
16976;DHT22;8604;48.148;-1.786;2023-04-23T22:06:57;10.90;99.90
16976;DHT22;8604;48.148;-1.786;2023-04-23T22:09:32;10.90;99.90
16976;DHT22;8604;48.148;-1.786;2023-04-23T22:12:01;10.90;99.90
16976;DHT22;8604;48.148;-1.786;2023-04-23T22:14:29;10.90;99.90
16976;DHT22;8604;48.148;-1.786;2023-04-23T22:16:58;10.80;99.90
16976;DHT22;8604;48.148;-1.786;2023-04-23T22:19:28;10.70;99.90